createdAt,value
2018-01-02T00:01:57.869Z,7.95
2018-01-02T00:04:26.148Z,7.84
2018-01-02T00:06:54.431Z,7.83
2018-01-02T00:09:22.686Z,7.72
2018-01-02T00:11:50.954Z,7.75
2018-01-02T00:14:19.254Z,7.81
2018-01-02T00:16:47.507Z,7.67
2018-01-02T00:19:15.832Z,7.73
2018-01-02T00:21:44.090Z,7.70
2018-01-02T00:24:12.376Z,7.62
2018-01-02T00:26:40.641Z,7.60
2018-01-02T00:29:08.906Z,7.58
2018-01-02T00:31:37.150Z,7.63
2018-01-02T00:34:05.457Z,7.58
2018-01-02T00:36:33.754Z,7.50
2018-01-02T00:39:02.042Z,7.58
2018-01-02T00:41:30.303Z,7.53
2018-01-02T00:43:58.585Z,7.49
2018-01-02T00:46:26.845Z,7.49
2018-01-02T00:48:55.097Z,7.45
2018-01-02T00:51:23.383Z,7.42
2018-01-02T00:53:51.660Z,7.27
2018-01-02T00:56:19.934Z,7.36
2018-01-02T00:58:48.171Z,7.36
2018-01-02T01:01:16.464Z,7.35
2018-01-02T01:03:44.737Z,7.41
2018-01-02T01:06:13.016Z,7.44
2018-01-02T01:08:41.308Z,7.45
2018-01-02T01:11:10.407Z,7.48
2018-01-02T01:13:38.680Z,7.48
2018-01-02T01:16:06.913Z,7.47
2018-01-02T01:18:35.206Z,7.51
2018-01-02T01:21:03.464Z,7.44
2018-01-02T01:23:31.754Z,7.54
2018-01-02T01:26:00.029Z,7.56
2018-01-02T01:28:28.321Z,7.48
2018-01-02T01:30:56.577Z,7.55
2018-01-02T01:33:24.868Z,7.60
2018-01-02T01:35:53.173Z,7.60
2018-01-02T01:38:21.451Z,7.60
2018-01-02T01:40:49.733Z,7.58
2018-01-02T01:43:18.004Z,7.65
2018-01-02T01:45:46.293Z,7.70
2018-01-02T01:48:15.129Z,7.67
2018-01-02T01:50:43.399Z,7.60
2018-01-02T01:53:11.651Z,7.63
2018-01-02T01:55:39.929Z,7.71
2018-01-02T01:58:08.197Z,7.71
2018-01-02T02:00:36.473Z,7.67
2018-01-02T02:03:04.746Z,7.59
2018-01-02T02:05:33.057Z,7.62
2018-01-02T02:08:01.306Z,7.65
2018-01-02T02:10:29.681Z,7.59
2018-01-02T02:12:57.962Z,7.67
2018-01-02T02:15:26.373Z,7.68
2018-01-02T02:17:54.684Z,7.65
2018-01-02T02:20:22.929Z,7.63
2018-01-02T02:22:51.251Z,7.62
2018-01-02T02:25:19.509Z,7.69
2018-01-02T02:27:47.827Z,7.70
2018-01-02T02:30:16.118Z,7.67
2018-01-02T02:32:44.447Z,7.71
2018-01-02T02:35:13.123Z,7.69
2018-01-02T02:37:41.398Z,7.70
2018-01-02T02:40:09.686Z,7.79
2018-01-02T02:42:37.996Z,7.78
2018-01-02T02:45:06.239Z,7.69
2018-01-02T02:47:34.501Z,7.65
2018-01-02T02:50:02.764Z,7.67
2018-01-02T02:52:31.087Z,7.65
2018-01-02T02:54:59.337Z,7.67
2018-01-02T02:57:27.584Z,7.76
2018-01-02T02:59:55.859Z,7.77
2018-01-02T03:02:24.159Z,7.73
2018-01-02T03:04:52.451Z,7.73
2018-01-02T03:07:20.711Z,7.75
2018-01-02T03:09:49.007Z,7.76
2018-01-02T03:12:17.284Z,7.79
2018-01-02T03:14:46.467Z,7.79
2018-01-02T03:17:14.746Z,7.83
2018-01-02T03:19:43.021Z,7.78
2018-01-02T03:22:11.410Z,7.80
2018-01-02T03:24:39.675Z,7.69
2018-01-02T03:27:07.955Z,7.68
2018-01-02T03:29:36.238Z,7.65
2018-01-02T03:32:04.518Z,7.72
2018-01-02T03:34:32.791Z,7.76
2018-01-02T03:37:01.067Z,7.79
2018-01-02T03:39:29.349Z,7.75
2018-01-02T03:41:57.624Z,7.69
2018-01-02T03:44:25.910Z,7.58
2018-01-02T03:46:54.157Z,7.56
2018-01-02T03:49:22.465Z,7.64
2018-01-02T03:51:50.740Z,7.73
2018-01-02T03:54:19.015Z,7.63
2018-01-02T03:56:47.274Z,7.67
2018-01-02T03:59:15.563Z,7.69
2018-01-02T04:01:43.840Z,7.71
2018-01-02T04:04:12.124Z,7.71
2018-01-02T04:06:40.404Z,7.59
2018-01-02T04:09:08.683Z,7.60
2018-01-02T04:11:36.962Z,7.47
2018-01-02T04:14:05.263Z,7.60
2018-01-02T04:16:33.503Z,7.61
2018-01-02T04:19:01.783Z,7.69
2018-01-02T04:21:30.077Z,7.68
2018-01-02T04:23:58.371Z,7.70
2018-01-02T04:26:26.619Z,7.69
2018-01-02T04:28:54.895Z,7.70
2018-01-02T04:31:23.163Z,7.70
2018-01-02T04:33:51.442Z,7.63
2018-01-02T04:36:19.687Z,7.59
2018-01-02T04:38:47.964Z,7.48
2018-01-02T04:41:16.260Z,7.53
2018-01-02T04:43:44.492Z,7.57
2018-01-02T04:46:12.791Z,7.54
2018-01-02T04:48:41.026Z,7.57
2018-01-02T04:51:09.348Z,7.59
2018-01-02T04:53:37.577Z,7.60
2018-01-02T04:56:05.991Z,7.57
2018-01-02T04:58:34.269Z,7.52
2018-01-02T05:01:02.558Z,7.51
2018-01-02T05:03:30.835Z,7.44
2018-01-02T05:05:59.919Z,7.51
2018-01-02T05:08:28.186Z,7.43
2018-01-02T05:10:56.470Z,7.44
2018-01-02T05:13:24.747Z,7.43
2018-01-02T05:15:53.023Z,7.53
2018-01-02T05:18:21.324Z,7.56
2018-01-02T05:20:49.575Z,7.60
2018-01-02T05:23:17.854Z,7.55
2018-01-02T05:25:46.119Z,7.64
2018-01-02T05:28:14.406Z,7.60
2018-01-02T05:30:42.658Z,7.50
2018-01-02T05:33:10.957Z,7.57
2018-01-02T05:35:39.210Z,7.57
2018-01-02T05:38:07.483Z,7.47
2018-01-02T05:40:35.756Z,7.50
2018-01-02T05:43:04.007Z,7.54
2018-01-02T05:45:32.277Z,7.54
2018-01-02T05:48:00.524Z,7.71
2018-01-02T05:50:28.802Z,7.75
2018-01-02T05:52:57.043Z,7.68
2018-01-02T05:55:25.346Z,7.81
2018-01-02T05:57:53.749Z,7.82
2018-01-02T06:00:21.998Z,7.87
2018-01-02T06:02:50.248Z,7.86
2018-01-02T06:05:18.525Z,7.86
2018-01-02T06:07:46.791Z,7.89
2018-01-02T06:10:15.037Z,7.94
2018-01-02T06:12:43.462Z,7.92
2018-01-02T06:15:11.686Z,7.93
2018-01-02T06:17:39.956Z,7.91
2018-01-02T06:20:08.251Z,7.95
2018-01-02T06:22:36.542Z,7.93
2018-01-02T06:25:04.836Z,7.92
2018-01-02T06:27:33.104Z,7.88
2018-01-02T06:30:01.366Z,7.93
2018-01-02T06:32:29.668Z,7.85
2018-01-02T06:34:57.911Z,7.84
2018-01-02T06:37:26.188Z,7.71
2018-01-02T06:39:54.505Z,7.78
2018-01-02T06:42:22.783Z,7.70
2018-01-02T06:44:51.066Z,7.76
2018-01-02T06:47:19.318Z,7.74
2018-01-02T06:49:47.590Z,7.69
2018-01-02T06:52:15.916Z,7.77
2018-01-02T06:54:44.291Z,7.69
2018-01-02T06:57:12.787Z,7.74
2018-01-02T06:59:41.055Z,7.78
2018-01-02T07:02:09.321Z,7.71
2018-01-02T07:04:37.583Z,7.70
2018-01-02T07:07:05.883Z,7.68
2018-01-02T07:09:34.149Z,7.70
2018-01-02T07:12:02.431Z,7.59
2018-01-02T07:14:30.686Z,7.65
2018-01-02T07:16:58.967Z,7.65
2018-01-02T07:19:27.198Z,7.67
2018-01-02T07:21:55.716Z,7.78
2018-01-02T07:24:24.095Z,7.83
2018-01-02T07:26:52.470Z,7.74
2018-01-02T07:29:20.723Z,7.84
2018-01-02T07:31:48.995Z,7.79
2018-01-02T07:34:17.279Z,7.79
2018-01-02T07:36:45.597Z,7.84
2018-01-02T07:39:13.822Z,7.79
2018-01-02T07:41:42.140Z,7.75
2018-01-02T07:44:10.507Z,7.82
2018-01-02T07:46:38.805Z,7.87
2018-01-02T07:49:07.062Z,7.82
2018-01-02T07:51:35.338Z,7.86
2018-01-02T07:54:03.614Z,7.74
2018-01-02T07:56:31.895Z,7.80
2018-01-02T07:59:00.175Z,7.78
2018-01-02T08:01:28.463Z,7.82
2018-01-02T08:03:56.847Z,7.84
2018-01-02T08:06:25.064Z,7.80
2018-01-02T08:08:53.355Z,7.69
2018-01-02T08:11:22.387Z,7.49
2018-01-02T08:13:50.661Z,7.44
2018-01-02T08:16:18.947Z,7.42
2018-01-02T08:18:47.222Z,7.30
2018-01-02T08:21:15.521Z,7.28
2018-01-02T08:23:44.059Z,7.05
2018-01-02T08:26:12.955Z,7.11
2018-01-02T08:28:41.234Z,7.06
2018-01-02T08:31:09.511Z,7.07
2018-01-02T08:33:38.696Z,7.10
2018-01-02T08:36:06.995Z,7.15
2018-01-02T08:38:35.241Z,7.21
2018-01-02T08:41:03.539Z,7.29
2018-01-02T08:43:31.804Z,7.31
2018-01-02T08:46:00.074Z,7.32
2018-01-02T08:48:28.351Z,7.34
2018-01-02T08:50:56.620Z,7.28
2018-01-02T08:53:25.209Z,7.29
2018-01-02T08:55:53.508Z,7.30
2018-01-02T08:58:21.797Z,7.30
2018-01-02T09:00:50.981Z,7.33
2018-01-02T09:03:19.256Z,7.36
2018-01-02T09:05:48.516Z,7.30
2018-01-02T09:08:16.762Z,7.22
2018-01-02T09:10:45.018Z,7.33
2018-01-02T09:13:17.156Z,7.36
2018-01-02T09:15:45.450Z,7.57
2018-01-02T09:18:13.741Z,7.58
2018-01-02T09:20:41.993Z,7.75
2018-01-02T09:23:10.291Z,7.78
2018-01-02T09:25:38.538Z,7.81
2018-01-02T09:28:06.819Z,7.74
2018-01-02T09:30:35.188Z,7.70
2018-01-02T09:33:03.439Z,7.78
2018-01-02T09:35:31.696Z,7.77
2018-01-02T09:37:59.952Z,7.75
2018-01-02T09:40:28.259Z,7.76
2018-01-02T09:42:56.523Z,7.92
2018-01-02T09:45:24.792Z,7.94
2018-01-02T09:47:53.143Z,7.61
2018-01-02T09:50:21.515Z,7.84
2018-01-02T09:52:49.820Z,7.87
2018-01-02T09:55:18.969Z,7.97
2018-01-02T09:57:47.246Z,7.93
2018-01-02T10:00:15.492Z,7.99
2018-01-02T10:02:43.835Z,8.04
2018-01-02T10:05:12.088Z,8.09
2018-01-02T10:07:40.373Z,8.17
2018-01-02T10:10:08.790Z,8.25
2018-01-02T10:12:37.071Z,8.24
2018-01-02T10:15:05.314Z,8.21
2018-01-02T10:17:33.615Z,8.27
2018-01-02T10:20:01.913Z,8.29
2018-01-02T10:22:30.168Z,8.35
2018-01-02T10:24:58.494Z,8.37
2018-01-02T10:27:26.848Z,8.43
2018-01-02T10:29:55.114Z,8.53
2018-01-02T10:32:23.357Z,8.59
2018-01-02T10:34:51.650Z,8.63
2018-01-02T10:37:19.935Z,8.69
2018-01-02T10:39:48.247Z,8.65
2018-01-02T10:42:16.569Z,8.55
2018-01-02T10:44:44.874Z,8.62
2018-01-02T10:47:13.120Z,8.64
2018-01-02T10:49:41.417Z,8.71
2018-01-02T10:52:09.748Z,8.83
2018-01-02T10:54:38.021Z,8.96
2018-01-02T10:57:06.307Z,9.04
2018-01-02T10:59:34.578Z,9.03
2018-01-02T11:02:02.882Z,8.95
2018-01-02T11:04:31.171Z,9.13
2018-01-02T11:06:59.470Z,9.04
2018-01-02T11:09:27.775Z,9.04
2018-01-02T11:11:58.912Z,9.00
2018-01-02T11:14:32.839Z,9.02
2018-01-02T11:17:01.108Z,8.85
2018-01-02T11:19:29.395Z,8.73
2018-01-02T11:21:57.943Z,8.79
2018-01-02T11:24:26.201Z,8.84
2018-01-02T11:26:55.069Z,8.93
2018-01-02T11:29:23.319Z,8.95
2018-01-02T11:31:51.668Z,8.97
2018-01-02T11:34:19.927Z,8.87
2018-01-02T11:36:48.308Z,8.76
2018-01-02T11:39:16.713Z,8.88
2018-01-02T11:41:44.938Z,8.91
2018-01-02T11:44:13.218Z,8.96
2018-01-02T11:46:41.541Z,9.07
2018-01-02T11:49:10.748Z,8.98
2018-01-02T11:51:39.116Z,9.23
2018-01-02T11:54:07.402Z,9.32
2018-01-02T11:56:35.980Z,9.19
2018-01-02T11:59:04.386Z,9.21
2018-01-02T12:01:32.630Z,9.13
2018-01-02T12:04:01.680Z,9.07
2018-01-02T12:06:30.656Z,9.05
2018-01-02T12:08:58.908Z,9.12
2018-01-02T12:11:27.232Z,9.18
2018-01-02T12:13:55.509Z,9.12
2018-01-02T12:16:23.792Z,9.07
2018-01-02T12:18:58.906Z,9.06
2018-01-02T12:21:27.534Z,9.12
2018-01-02T12:23:55.810Z,9.13
2018-01-02T12:26:24.080Z,9.25
2018-01-02T12:28:52.362Z,9.27
2018-01-02T12:31:20.654Z,9.31
2018-01-02T12:33:48.927Z,9.28
2018-01-02T12:36:17.199Z,9.21
2018-01-02T12:38:45.542Z,9.22
2018-01-02T12:41:13.786Z,9.27
2018-01-02T12:43:42.098Z,9.38
2018-01-02T12:46:10.398Z,9.25
2018-01-02T12:48:38.698Z,9.28
2018-01-02T12:51:07.471Z,9.33
2018-01-02T12:53:35.894Z,9.24
2018-01-02T12:56:04.203Z,9.17
2018-01-02T12:58:32.484Z,9.27
2018-01-02T13:01:00.778Z,9.27
2018-01-02T13:03:29.028Z,9.24
2018-01-02T13:05:57.337Z,9.23
2018-01-02T13:08:25.616Z,9.19
2018-01-02T13:10:53.950Z,9.10
2018-01-02T13:13:22.207Z,9.12
2018-01-02T13:15:50.503Z,9.05
2018-01-02T13:18:18.844Z,9.02
2018-01-02T13:20:47.132Z,9.16
2018-01-02T13:25:49.041Z,9.13
2018-01-02T13:28:17.351Z,9.09
2018-01-02T13:30:45.717Z,9.08
2018-01-02T13:33:14.096Z,9.05
2018-01-02T13:35:42.718Z,9.08
2018-01-02T13:38:10.995Z,9.07
2018-01-02T13:40:39.342Z,9.12
2018-01-02T13:43:07.643Z,9.20
2018-01-02T13:45:35.941Z,9.12
2018-01-02T13:48:04.315Z,9.20
2018-01-02T13:50:32.590Z,9.28
2018-01-02T13:53:00.899Z,9.41
2018-01-02T13:55:29.161Z,9.37
2018-01-02T13:57:57.443Z,9.22
2018-01-02T14:00:25.714Z,9.07
2018-01-02T14:02:54.027Z,9.13
2018-01-02T14:05:22.393Z,9.19
2018-01-02T14:07:50.748Z,9.18
2018-01-02T14:10:19.041Z,9.13
2018-01-02T14:12:48.433Z,9.04
2018-01-02T14:15:17.800Z,9.03
2018-01-02T14:17:46.214Z,9.00
2018-01-02T14:20:14.706Z,8.96
2018-01-02T14:22:43.142Z,8.94
2018-01-02T14:25:11.444Z,8.99
2018-01-02T14:27:40.441Z,8.88
2018-01-02T14:30:08.732Z,8.91
2018-01-02T14:32:37.022Z,8.85
2018-01-02T14:35:05.319Z,8.80
2018-01-02T14:37:33.649Z,8.82
2018-01-02T14:40:01.931Z,8.77
2018-01-02T14:42:30.217Z,8.84
2018-01-02T14:44:58.536Z,8.90
2018-01-02T14:47:26.854Z,8.92
2018-01-02T14:49:55.878Z,8.96
2018-01-02T14:52:24.159Z,8.92
2018-01-02T14:54:52.573Z,8.90
2018-01-02T14:57:21.605Z,8.88
2018-01-02T14:59:49.882Z,9.02
2018-01-02T15:02:18.220Z,9.02
2018-01-02T15:04:46.652Z,9.06
2018-01-02T15:07:15.842Z,9.08
2018-01-02T15:09:44.144Z,9.11
2018-01-02T15:12:12.418Z,9.07
2018-01-02T15:14:40.780Z,9.02
2018-01-02T15:17:09.169Z,8.95
2018-01-02T15:19:37.472Z,8.96
2018-01-02T15:22:05.733Z,9.00
2018-01-02T15:24:34.504Z,8.95
2018-01-02T15:27:03.040Z,8.88
2018-01-02T15:29:31.318Z,8.88
2018-01-02T15:31:59.579Z,8.87
2018-01-02T15:34:27.919Z,8.86
2018-01-02T15:36:56.196Z,8.88
2018-01-02T15:39:24.472Z,8.90
2018-01-02T15:41:52.756Z,9.05
2018-01-02T15:44:21.050Z,9.02
2018-01-02T15:46:49.629Z,9.01
2018-01-02T15:49:17.889Z,8.96
2018-01-02T15:51:46.197Z,9.04
2018-01-02T15:54:14.439Z,9.01
2018-01-02T15:56:42.751Z,8.88
2018-01-02T15:59:11.015Z,8.87
2018-01-02T16:01:40.262Z,8.83
2018-01-02T16:04:08.565Z,8.81
2018-01-02T16:06:36.859Z,8.84
2018-01-02T16:09:05.226Z,8.89
2018-01-02T16:11:33.577Z,8.76
2018-01-02T16:14:01.890Z,8.72
2018-01-02T16:16:31.563Z,8.71
2018-01-02T16:18:59.865Z,8.76
2018-01-02T16:21:28.220Z,8.83
2018-01-02T16:23:56.537Z,8.92
2018-01-02T16:26:25.325Z,8.89
2018-01-02T16:28:53.769Z,8.90
2018-01-02T16:31:22.006Z,8.79
2018-01-02T16:33:50.304Z,8.83
2018-01-02T16:36:18.628Z,8.87
2018-01-02T16:38:46.908Z,8.80
2018-01-02T16:41:15.208Z,8.79
2018-01-02T16:43:43.555Z,8.89
2018-01-02T16:46:11.975Z,8.81
2018-01-02T16:48:40.758Z,8.81
2018-01-02T16:51:09.018Z,8.82
2018-01-02T16:53:37.287Z,8.88
2018-01-02T16:56:05.567Z,8.78
2018-01-02T16:58:33.840Z,8.84
2018-01-02T17:01:02.135Z,8.93
2018-01-02T17:03:30.391Z,8.89
2018-01-02T17:05:58.699Z,8.87
2018-01-02T17:08:27.083Z,8.75
2018-01-02T17:10:55.333Z,8.81
2018-01-02T17:13:23.657Z,8.78
2018-01-02T17:15:51.933Z,8.80
2018-01-02T17:18:20.246Z,8.76
2018-01-02T17:20:48.555Z,8.74
2018-01-02T17:23:16.839Z,8.83
2018-01-02T17:25:45.170Z,8.89
2018-01-02T17:28:13.519Z,8.99
2018-01-02T17:30:41.834Z,9.01
2018-01-02T17:33:10.137Z,8.90
2018-01-02T17:35:38.415Z,8.99
2018-01-02T17:38:06.719Z,8.85
2018-01-02T17:40:34.938Z,8.90
2018-01-02T17:43:03.237Z,8.94
2018-01-02T17:45:31.564Z,9.01
2018-01-02T17:47:59.863Z,9.01
2018-01-02T17:50:28.922Z,8.98
2018-01-02T17:52:57.185Z,9.03
2018-01-02T17:55:25.555Z,8.96
2018-01-02T17:57:53.828Z,9.00
2018-01-02T18:05:16.771Z,9.13
2018-01-02T18:07:45.036Z,9.16
2018-01-02T18:10:13.360Z,9.17
2018-01-02T18:12:41.616Z,9.09
2018-01-02T18:15:10.630Z,8.97
2018-01-02T18:17:38.888Z,9.03
2018-01-02T18:20:07.139Z,8.89
2018-01-02T18:22:35.415Z,8.88
2018-01-02T18:25:03.687Z,8.77
2018-01-02T18:27:31.967Z,8.77
2018-01-02T18:30:00.241Z,8.74
2018-01-02T18:32:28.506Z,8.76
2018-01-02T18:34:56.758Z,8.79
2018-01-02T18:37:25.039Z,8.82
2018-01-02T18:39:53.298Z,8.86
2018-01-02T18:42:21.619Z,8.88
2018-01-02T18:44:49.899Z,8.91
2018-01-02T18:47:18.174Z,8.79
2018-01-02T18:49:46.467Z,8.73
2018-01-02T18:52:14.751Z,8.71
2018-01-02T18:54:43.055Z,8.80
2018-01-02T18:57:11.324Z,8.78
2018-01-02T18:59:39.642Z,8.61
2018-01-02T19:02:07.912Z,8.64
2018-01-02T19:04:36.211Z,8.69
2018-01-02T19:07:05.519Z,8.71
2018-01-02T19:09:33.824Z,8.76
2018-01-02T19:12:02.038Z,8.70
2018-01-02T19:14:30.322Z,8.70
2018-01-02T19:16:58.590Z,8.63
2018-01-02T19:19:26.887Z,8.61
2018-01-02T19:21:55.146Z,8.72
2018-01-02T19:24:23.444Z,8.77
2018-01-02T19:26:51.720Z,8.77
2018-01-02T19:29:19.991Z,8.81
2018-01-02T19:31:49.088Z,8.93
2018-01-02T19:34:17.365Z,8.86
2018-01-02T19:36:45.644Z,8.87
2018-01-02T19:39:13.914Z,8.89
2018-01-02T19:41:42.217Z,8.78
2018-01-02T19:44:10.493Z,8.76
2018-01-02T19:46:38.770Z,8.60
2018-01-02T19:49:07.027Z,8.39
2018-01-02T19:51:35.335Z,8.40
2018-01-02T19:54:03.626Z,8.38
2018-01-02T19:56:31.879Z,8.40
2018-01-02T19:59:00.149Z,8.36
2018-01-02T20:01:28.428Z,8.42
2018-01-02T20:03:56.687Z,8.48
2018-01-02T20:06:26.185Z,8.57
2018-01-02T20:08:54.440Z,8.53
2018-01-02T20:11:22.699Z,8.49
2018-01-02T20:13:51.839Z,8.53
2018-01-02T20:16:20.114Z,8.44
2018-01-02T20:18:49.018Z,8.52
2018-01-02T20:21:17.301Z,8.44
2018-01-02T20:23:45.588Z,8.43
2018-01-02T20:26:13.847Z,8.37
2018-01-02T20:28:42.123Z,8.18
2018-01-02T20:31:10.384Z,8.33
2018-01-02T20:33:39.733Z,8.39
2018-01-02T20:36:08.031Z,8.35
2018-01-02T20:38:36.283Z,8.23
2018-01-02T20:41:04.601Z,8.31
2018-01-02T20:43:32.859Z,8.25
2018-01-02T20:46:01.811Z,8.08
2018-01-02T20:48:30.066Z,7.91
2018-01-02T20:50:58.423Z,8.13
2018-01-02T20:53:26.665Z,8.04
2018-01-02T20:55:55.415Z,8.11
2018-01-02T20:58:23.631Z,8.15
2018-01-02T21:00:51.921Z,8.18
2018-01-02T21:03:20.205Z,8.21
2018-01-02T21:05:48.510Z,8.13
2018-01-02T21:08:16.765Z,8.10
2018-01-02T21:10:45.048Z,8.03
2018-01-02T21:13:13.330Z,8.11
2018-01-02T21:15:41.604Z,8.24
2018-01-02T21:18:09.898Z,8.15
2018-01-02T21:20:38.180Z,8.08
2018-01-02T21:23:06.515Z,8.15
2018-01-02T21:25:34.719Z,8.12
2018-01-02T21:28:03.170Z,8.13
2018-01-02T21:30:31.392Z,8.17
2018-01-02T21:32:59.676Z,8.14
2018-01-02T21:35:27.921Z,8.10
2018-01-02T21:37:56.274Z,8.13
2018-01-02T21:40:24.495Z,8.01
2018-01-02T21:42:56.004Z,8.17
2018-01-02T21:45:24.260Z,8.29
2018-01-02T21:47:52.519Z,8.31
2018-01-02T21:50:20.796Z,8.31
2018-01-02T21:52:49.337Z,8.30
2018-01-02T21:55:17.628Z,8.38
2018-01-02T21:57:45.879Z,8.46
2018-01-02T22:00:14.205Z,8.37
2018-01-02T22:02:42.516Z,8.34
2018-01-02T22:05:10.821Z,8.14
2018-01-02T22:07:39.088Z,8.21
2018-01-02T22:10:07.346Z,8.16
2018-01-02T22:12:35.587Z,8.22
2018-01-02T22:15:03.889Z,8.20
2018-01-02T22:17:32.170Z,8.25
2018-01-02T22:20:00.437Z,8.23
2018-01-02T22:22:28.723Z,8.28
2018-01-02T22:24:56.997Z,8.20
2018-01-02T22:27:25.292Z,8.33
2018-01-02T22:29:53.578Z,8.37
2018-01-02T22:32:21.927Z,8.34
2018-01-02T22:34:50.193Z,8.35
2018-01-02T22:37:18.685Z,8.38
2018-01-02T22:39:46.923Z,8.38
2018-01-02T22:42:15.190Z,8.45
2018-01-02T22:44:43.463Z,8.42
2018-01-02T22:47:11.885Z,8.39
2018-01-02T22:49:40.167Z,8.40
2018-01-02T22:52:08.436Z,8.37
2018-01-02T22:54:36.682Z,8.42
2018-01-02T22:57:04.936Z,8.55
2018-01-02T22:59:33.226Z,8.42
2018-01-02T23:02:01.487Z,8.43
2018-01-02T23:04:29.780Z,8.40
2018-01-02T23:06:58.111Z,8.43
2018-01-02T23:09:26.473Z,8.40
2018-01-02T23:11:54.744Z,8.43
2018-01-02T23:14:22.986Z,8.41
2018-01-02T23:16:51.283Z,8.43
2018-01-02T23:19:19.526Z,8.49
2018-01-02T23:21:47.840Z,8.45
2018-01-02T23:24:16.112Z,8.47
2018-01-02T23:26:44.405Z,8.55
2018-01-02T23:29:12.650Z,8.56
2018-01-02T23:31:40.931Z,8.67
2018-01-02T23:34:09.228Z,8.64
2018-01-02T23:36:37.470Z,8.54
2018-01-02T23:39:05.742Z,8.60
2018-01-02T23:41:34.010Z,8.47
2018-01-02T23:44:02.273Z,8.48
2018-01-02T23:46:30.525Z,8.47
2018-01-02T23:48:58.890Z,8.49
2018-01-02T23:51:27.114Z,8.53
2018-01-02T23:53:55.413Z,8.53
2018-01-02T23:56:23.650Z,8.56
2018-01-02T23:58:51.926Z,8.60
